sensor_id;sensor_type;location;lat;lon;timestamp;pressure;altitude;pressure_sealevel;temperature;humidity
75298;BME280;63896;45.990;18.688;2023-06-14T00:01:51;100415.72;;;12.80;100.00
75298;BME280;63896;45.990;18.688;2023-06-14T00:04:54;100412.25;;;12.80;100.00
75298;BME280;63896;45.990;18.688;2023-06-14T00:07:57;100408.75;;;12.79;100.00
75298;BME280;63896;45.990;18.688;2023-06-14T00:11:02;100411.91;;;12.88;100.00
75298;BME280;63896;45.990;18.688;2023-06-14T00:14:05;100412.97;;;12.99;100.00
75298;BME280;63896;45.990;18.688;2023-06-14T00:17:08;100421.44;;;13.07;100.00
75298;BME280;63896;45.990;18.688;2023-06-14T00:20:12;100416.13;;;13.07;100.00
75298;BME280;63896;45.990;18.688;2023-06-14T00:23:15;100410.66;;;13.02;100.00
75298;BME280;63896;45.990;18.688;2023-06-14T00:26:18;100417.03;;;12.89;100.00
75298;BME280;63896;45.990;18.688;2023-06-14T00:29:20;100416.06;;;12.84;100.00
75298;BME280;63896;45.990;18.688;2023-06-14T00:32:23;100418.84;;;12.77;100.00
75298;BME280;63896;45.990;18.688;2023-06-14T00:35:31;100412.22;;;12.68;100.00
75298;BME280;63896;45.990;18.688;2023-06-14T00:38:33;100416.72;;;12.68;100.00
75298;BME280;63896;45.990;18.688;2023-06-14T00:41:36;100410.69;;;12.61;100.00
75298;BME280;63896;45.990;18.688;2023-06-14T00:44:40;100404.03;;;12.52;100.00
75298;BME280;63896;45.990;18.688;2023-06-14T00:47:45;100404.28;;;12.50;100.00
75298;BME280;63896;45.990;18.688;2023-06-14T00:50:49;100410.84;;;12.48;100.00
75298;BME280;63896;45.990;18.688;2023-06-14T00:53:53;100407.63;;;12.46;100.00
75298;BME280;63896;45.990;18.688;2023-06-14T00:56:56;100414.56;;;12.47;100.00
75298;BME280;63896;45.990;18.688;2023-06-14T00:59:59;100409.91;;;12.42;100.00
75298;BME280;63896;45.990;18.688;2023-06-14T01:03:02;100411.91;;;12.47;100.00
75298;BME280;63896;45.990;18.688;2023-06-14T01:06:23;100408.44;;;12.46;100.00
75298;BME280;63896;45.990;18.688;2023-06-14T01:13:06;100396.00;;;12.40;100.00
75298;BME280;63896;45.990;18.688;2023-06-14T01:16:10;100395.91;;;12.35;100.00
75298;BME280;63896;45.990;18.688;2023-06-14T01:19:15;100395.09;;;12.34;100.00
75298;BME280;63896;45.990;18.688;2023-06-14T01:22:18;100392.63;;;12.33;100.00
75298;BME280;63896;45.990;18.688;2023-06-14T01:25:22;100388.50;;;12.37;100.00
75298;BME280;63896;45.990;18.688;2023-06-14T01:28:27;100392.06;;;12.31;100.00
75298;BME280;63896;45.990;18.688;2023-06-14T01:31:34;100398.28;;;12.25;100.00
75298;BME280;63896;45.990;18.688;2023-06-14T01:34:44;100399.38;;;12.17;100.00
75298;BME280;63896;45.990;18.688;2023-06-14T01:37:48;100388.28;;;12.20;100.00
75298;BME280;63896;45.990;18.688;2023-06-14T01:40:53;100394.31;;;12.16;100.00
75298;BME280;63896;45.990;18.688;2023-06-14T01:43:58;100392.78;;;12.08;100.00
75298;BME280;63896;45.990;18.688;2023-06-14T01:47:01;100389.75;;;12.05;100.00
75298;BME280;63896;45.990;18.688;2023-06-14T01:50:04;100402.22;;;12.04;100.00
75298;BME280;63896;45.990;18.688;2023-06-14T01:53:09;100392.16;;;12.06;100.00
75298;BME280;63896;45.990;18.688;2023-06-14T01:56:12;100390.47;;;12.12;100.00
75298;BME280;63896;45.990;18.688;2023-06-14T01:59:15;100393.03;;;12.18;99.94
75298;BME280;63896;45.990;18.688;2023-06-14T02:02:18;100396.97;;;12.16;99.01
75298;BME280;63896;45.990;18.688;2023-06-14T02:05:21;100398.09;;;12.08;98.80
75298;BME280;63896;45.990;18.688;2023-06-14T02:08:24;100394.63;;;12.08;99.18
75298;BME280;63896;45.990;18.688;2023-06-14T02:11:27;100400.69;;;11.97;99.24
75298;BME280;63896;45.990;18.688;2023-06-14T02:14:30;100397.06;;;11.91;99.29
75298;BME280;63896;45.990;18.688;2023-06-14T02:17:33;100395.31;;;11.85;99.32
75298;BME280;63896;45.990;18.688;2023-06-14T02:20:41;100402.91;;;11.81;99.73
75298;BME280;63896;45.990;18.688;2023-06-14T02:23:44;100397.59;;;11.81;100.00
75298;BME280;63896;45.990;18.688;2023-06-14T02:26:46;100403.94;;;11.80;100.00
75298;BME280;63896;45.990;18.688;2023-06-14T02:29:50;100395.59;;;11.77;100.00
75298;BME280;63896;45.990;18.688;2023-06-14T02:32:56;100406.69;;;11.74;100.00
75298;BME280;63896;45.990;18.688;2023-06-14T02:36:02;100412.78;;;11.74;100.00
75298;BME280;63896;45.990;18.688;2023-06-14T02:39:05;100406.22;;;11.77;100.00
75298;BME280;63896;45.990;18.688;2023-06-14T02:42:08;100413.16;;;11.78;100.00
75298;BME280;63896;45.990;18.688;2023-06-14T02:45:11;100404.38;;;11.77;100.00
75298;BME280;63896;45.990;18.688;2023-06-14T02:48:14;100410.44;;;11.84;100.00
75298;BME280;63896;45.990;18.688;2023-06-14T02:51:17;100406.34;;;11.82;100.00
75298;BME280;63896;45.990;18.688;2023-06-14T02:54:20;100405.78;;;11.80;100.00
75298;BME280;63896;45.990;18.688;2023-06-14T02:57:23;100402.16;;;11.74;100.00
75298;BME280;63896;45.990;18.688;2023-06-14T03:00:26;100409.09;;;11.75;100.00
75298;BME280;63896;45.990;18.688;2023-06-14T03:03:31;100411.16;;;11.91;100.00
75298;BME280;63896;45.990;18.688;2023-06-14T03:06:35;100410.19;;;11.86;100.00
75298;BME280;63896;45.990;18.688;2023-06-14T03:09:40;100413.00;;;11.91;100.00
75298;BME280;63896;45.990;18.688;2023-06-14T03:12:45;100411.44;;;12.02;100.00
75298;BME280;63896;45.990;18.688;2023-06-14T03:15:49;100412.50;;;12.01;99.65
75298;BME280;63896;45.990;18.688;2023-06-14T03:18:56;100413.81;;;12.10;98.83
75298;BME280;63896;45.990;18.688;2023-06-14T03:22:03;100416.00;;;12.13;99.29
75298;BME280;63896;45.990;18.688;2023-06-14T03:25:08;100413.34;;;12.13;98.85
75298;BME280;63896;45.990;18.688;2023-06-14T03:28:14;100416.81;;;12.31;97.37
75298;BME280;63896;45.990;18.688;2023-06-14T03:31:17;100421.44;;;12.36;97.32
75298;BME280;63896;45.990;18.688;2023-06-14T03:34:22;100431.06;;;12.37;97.65
75298;BME280;63896;45.990;18.688;2023-06-14T03:37:25;100426.34;;;12.39;97.71
75298;BME280;63896;45.990;18.688;2023-06-14T03:40:28;100432.28;;;12.53;97.14
75298;BME280;63896;45.990;18.688;2023-06-14T03:43:36;100431.97;;;12.61;96.82
75298;BME280;63896;45.990;18.688;2023-06-14T03:46:39;100438.25;;;12.66;96.12
75298;BME280;63896;45.990;18.688;2023-06-14T03:49:42;100436.88;;;12.75;95.32
75298;BME280;63896;45.990;18.688;2023-06-14T03:52:48;100441.19;;;12.88;94.46
75298;BME280;63896;45.990;18.688;2023-06-14T03:55:52;100444.94;;;12.99;94.69
75298;BME280;63896;45.990;18.688;2023-06-14T03:59:17;100444.78;;;13.23;92.72
75298;BME280;63896;45.990;18.688;2023-06-14T04:02:20;100445.69;;;13.29;91.20
75298;BME280;63896;45.990;18.688;2023-06-14T04:05:24;100446.06;;;13.32;90.01
75298;BME280;63896;45.990;18.688;2023-06-14T04:08:31;100448.03;;;13.37;89.98
75298;BME280;63896;45.990;18.688;2023-06-14T04:11:34;100455.13;;;13.43;88.19
75298;BME280;63896;45.990;18.688;2023-06-14T04:14:39;100456.97;;;13.54;86.77
75298;BME280;63896;45.990;18.688;2023-06-14T04:17:44;100460.31;;;13.73;86.12
75298;BME280;63896;45.990;18.688;2023-06-14T04:20:47;100464.84;;;13.84;85.61
75298;BME280;63896;45.990;18.688;2023-06-14T04:23:51;100468.53;;;13.95;85.27
75298;BME280;63896;45.990;18.688;2023-06-14T04:26:58;100470.63;;;13.93;85.51
75298;BME280;63896;45.990;18.688;2023-06-14T04:30:02;100463.88;;;14.02;84.37
75298;BME280;63896;45.990;18.688;2023-06-14T04:33:11;100469.56;;;14.17;83.55
75298;BME280;63896;45.990;18.688;2023-06-14T04:36:14;100461.97;;;14.37;84.14
75298;BME280;63896;45.990;18.688;2023-06-14T04:39:23;100465.22;;;14.39;83.79
75298;BME280;63896;45.990;18.688;2023-06-14T04:42:26;100460.13;;;14.38;85.18
75298;BME280;63896;45.990;18.688;2023-06-14T04:45:35;100457.13;;;14.62;85.08
75298;BME280;63896;45.990;18.688;2023-06-14T04:48:40;100454.59;;;14.84;84.44
75298;BME280;63896;45.990;18.688;2023-06-14T04:51:46;100456.47;;;15.00;84.20
75298;BME280;63896;45.990;18.688;2023-06-14T04:54:53;100453.06;;;15.21;83.50
75298;BME280;63896;45.990;18.688;2023-06-14T04:57:59;100456.75;;;15.65;82.37
75298;BME280;63896;45.990;18.688;2023-06-14T05:01:03;100453.59;;;16.34;79.21
75298;BME280;63896;45.990;18.688;2023-06-14T05:04:07;100457.13;;;16.12;77.52
75298;BME280;63896;45.990;18.688;2023-06-14T05:07:10;100453.38;;;16.35;75.98
75298;BME280;63896;45.990;18.688;2023-06-14T05:10:13;100450.63;;;16.30;76.58
75298;BME280;63896;45.990;18.688;2023-06-14T05:13:17;100458.53;;;16.42;75.89
75298;BME280;63896;45.990;18.688;2023-06-14T05:16:21;100457.28;;;16.28;76.37
75298;BME280;63896;45.990;18.688;2023-06-14T05:19:25;100457.47;;;16.64;75.19
75298;BME280;63896;45.990;18.688;2023-06-14T05:22:29;100464.81;;;16.74;75.24
75298;BME280;63896;45.990;18.688;2023-06-14T05:25:32;100462.66;;;16.71;74.68
75298;BME280;63896;45.990;18.688;2023-06-14T05:28:35;100466.53;;;16.85;75.48
75298;BME280;63896;45.990;18.688;2023-06-14T05:31:38;100466.13;;;16.98;75.01
75298;BME280;63896;45.990;18.688;2023-06-14T05:34:43;100471.19;;;16.95;73.97
75298;BME280;63896;45.990;18.688;2023-06-14T05:37:46;100464.75;;;16.69;74.49
75298;BME280;63896;45.990;18.688;2023-06-14T05:40:50;100464.25;;;16.72;75.31
75298;BME280;63896;45.990;18.688;2023-06-14T05:43:54;100470.88;;;17.23;74.36
75298;BME280;63896;45.990;18.688;2023-06-14T05:47:24;100467.09;;;17.19;73.60
75298;BME280;63896;45.990;18.688;2023-06-14T05:50:33;100466.13;;;17.62;71.91
75298;BME280;63896;45.990;18.688;2023-06-14T05:53:36;100466.28;;;17.87;71.21
75298;BME280;63896;45.990;18.688;2023-06-14T05:56:42;100469.34;;;18.06;69.76
75298;BME280;63896;45.990;18.688;2023-06-14T05:59:47;100470.84;;;18.44;69.00
75298;BME280;63896;45.990;18.688;2023-06-14T06:02:50;100473.25;;;18.50;68.75
75298;BME280;63896;45.990;18.688;2023-06-14T06:05:58;100467.47;;;18.79;69.25
75298;BME280;63896;45.990;18.688;2023-06-14T06:09:01;100469.91;;;18.80;68.05
75298;BME280;63896;45.990;18.688;2023-06-14T06:12:07;100473.00;;;18.42;70.02
75298;BME280;63896;45.990;18.688;2023-06-14T06:15:12;100475.81;;;18.87;68.47
75298;BME280;63896;45.990;18.688;2023-06-14T06:18:18;100469.38;;;19.14;66.99
75298;BME280;63896;45.990;18.688;2023-06-14T06:21:23;100479.91;;;19.50;65.59
75298;BME280;63896;45.990;18.688;2023-06-14T06:24:27;100478.00;;;19.21;66.50
75298;BME280;63896;45.990;18.688;2023-06-14T06:27:30;100474.47;;;19.00;64.96
75298;BME280;63896;45.990;18.688;2023-06-14T06:30:33;100482.59;;;19.50;65.84
75298;BME280;63896;45.990;18.688;2023-06-14T06:33:36;100483.81;;;20.09;63.59
75298;BME280;63896;45.990;18.688;2023-06-14T06:36:54;100488.44;;;20.67;62.27
75298;BME280;63896;45.990;18.688;2023-06-14T06:39:58;100489.28;;;20.63;61.68
75298;BME280;63896;45.990;18.688;2023-06-14T06:43:05;100490.94;;;21.03;58.11
75298;BME280;63896;45.990;18.688;2023-06-14T06:46:38;100492.34;;;21.34;60.27
75298;BME280;63896;45.990;18.688;2023-06-14T06:49:46;100488.31;;;21.60;60.56
75298;BME280;63896;45.990;18.688;2023-06-14T06:52:50;100491.16;;;21.45;59.03
75298;BME280;63896;45.990;18.688;2023-06-14T06:55:53;100499.03;;;21.99;58.12
75298;BME280;63896;45.990;18.688;2023-06-14T06:58:56;100499.91;;;22.18;55.81
75298;BME280;63896;45.990;18.688;2023-06-14T07:01:59;100498.59;;;21.92;55.80
75298;BME280;63896;45.990;18.688;2023-06-14T07:05:02;100510.19;;;21.93;56.22
75298;BME280;63896;45.990;18.688;2023-06-14T07:12:23;100501.72;;;23.40;52.48
75298;BME280;63896;45.990;18.688;2023-06-14T07:15:26;100507.66;;;24.84;49.11
75298;BME280;63896;45.990;18.688;2023-06-14T07:18:30;100504.69;;;25.07;46.01
75298;BME280;63896;45.990;18.688;2023-06-14T07:21:35;100500.97;;;25.26;45.75
75298;BME280;63896;45.990;18.688;2023-06-14T07:24:44;100505.19;;;26.64;42.45
75298;BME280;63896;45.990;18.688;2023-06-14T07:27:48;100500.56;;;27.41;41.08
75298;BME280;63896;45.990;18.688;2023-06-14T07:30:51;100504.31;;;26.29;41.81
75298;BME280;63896;45.990;18.688;2023-06-14T07:34:05;100498.47;;;28.40;36.82
75298;BME280;63896;45.990;18.688;2023-06-14T07:37:10;100497.16;;;28.46;36.39
75298;BME280;63896;45.990;18.688;2023-06-14T07:40:16;100495.22;;;28.17;37.11
75298;BME280;63896;45.990;18.688;2023-06-14T07:43:19;100487.69;;;28.64;36.00
75298;BME280;63896;45.990;18.688;2023-06-14T07:46:27;100493.50;;;29.58;35.51
75298;BME280;63896;45.990;18.688;2023-06-14T07:49:32;100486.59;;;28.86;35.26
75298;BME280;63896;45.990;18.688;2023-06-14T07:52:35;100493.59;;;29.49;34.01
75298;BME280;63896;45.990;18.688;2023-06-14T07:55:39;100487.88;;;29.42;33.77
75298;BME280;63896;45.990;18.688;2023-06-14T07:59:23;100489.41;;;31.84;29.09
75298;BME280;63896;45.990;18.688;2023-06-14T08:02:58;100495.38;;;29.12;30.37
75298;BME280;63896;45.990;18.688;2023-06-14T08:06:03;100490.50;;;30.96;29.55
75298;BME280;63896;45.990;18.688;2023-06-14T08:09:07;100496.81;;;28.48;32.97
75298;BME280;63896;45.990;18.688;2023-06-14T08:12:11;100498.25;;;29.94;31.85
75298;BME280;63896;45.990;18.688;2023-06-14T08:15:14;100502.84;;;30.50;30.38
75298;BME280;63896;45.990;18.688;2023-06-14T08:18:17;100502.78;;;31.70;27.59
75298;BME280;63896;45.990;18.688;2023-06-14T08:21:20;100497.88;;;31.95;26.79
75298;BME280;63896;45.990;18.688;2023-06-14T08:24:23;100505.34;;;31.07;26.83
75298;BME280;63896;45.990;18.688;2023-06-14T08:27:32;100505.28;;;31.47;26.58
75298;BME280;63896;45.990;18.688;2023-06-14T08:30:35;100497.59;;;31.53;26.47
75298;BME280;63896;45.990;18.688;2023-06-14T08:33:38;100495.50;;;31.93;25.43
75298;BME280;63896;45.990;18.688;2023-06-14T08:36:46;100494.16;;;32.34;26.25
75298;BME280;63896;45.990;18.688;2023-06-14T08:39:49;100493.53;;;32.76;24.66
75298;BME280;63896;45.990;18.688;2023-06-14T08:42:54;100493.72;;;30.98;26.55
75298;BME280;63896;45.990;18.688;2023-06-14T08:46:02;100494.66;;;32.55;24.36
75298;BME280;63896;45.990;18.688;2023-06-14T08:49:16;100501.56;;;32.49;23.66
75298;BME280;63896;45.990;18.688;2023-06-14T08:52:21;100509.03;;;31.55;24.92
75298;BME280;63896;45.990;18.688;2023-06-14T08:55:36;100503.47;;;32.30;24.40
75298;BME280;63896;45.990;18.688;2023-06-14T08:58:46;100513.97;;;32.94;23.20
75298;BME280;63896;45.990;18.688;2023-06-14T09:01:54;100506.94;;;33.77;21.98
75298;BME280;63896;45.990;18.688;2023-06-14T09:05:13;100508.41;;;34.69;21.13
75298;BME280;63896;45.990;18.688;2023-06-14T09:08:17;100507.00;;;33.38;22.36
75298;BME280;63896;45.990;18.688;2023-06-14T09:11:21;100504.66;;;32.83;21.92
75298;BME280;63896;45.990;18.688;2023-06-14T09:14:26;100501.25;;;34.94;20.10
75298;BME280;63896;45.990;18.688;2023-06-14T09:17:36;100496.31;;;33.56;21.38
75298;BME280;63896;45.990;18.688;2023-06-14T09:20:41;100500.22;;;35.76;18.68
75298;BME280;63896;45.990;18.688;2023-06-14T09:23:47;100498.81;;;34.89;19.98
75298;BME280;63896;45.990;18.688;2023-06-14T09:26:51;100504.31;;;31.12;23.79
75298;BME280;63896;45.990;18.688;2023-06-14T09:29:54;100503.78;;;30.82;23.59
75298;BME280;63896;45.990;18.688;2023-06-14T09:32:57;100500.47;;;31.72;23.12
75298;BME280;63896;45.990;18.688;2023-06-14T09:36:05;100499.16;;;34.05;19.65
75298;BME280;63896;45.990;18.688;2023-06-14T09:39:16;100488.13;;;34.58;20.19
75298;BME280;63896;45.990;18.688;2023-06-14T09:42:20;100486.00;;;33.72;20.83
75298;BME280;63896;45.990;18.688;2023-06-14T09:45:53;100488.88;;;34.02;21.15
75298;BME280;63896;45.990;18.688;2023-06-14T09:48:58;100491.53;;;33.53;21.00
75298;BME280;63896;45.990;18.688;2023-06-14T09:52:04;100486.97;;;34.59;19.90
75298;BME280;63896;45.990;18.688;2023-06-14T09:55:13;100485.63;;;35.05;19.75
75298;BME280;63896;45.990;18.688;2023-06-14T09:58:29;100482.53;;;33.33;20.26
75298;BME280;63896;45.990;18.688;2023-06-14T10:01:58;100479.69;;;32.37;22.07
75298;BME280;63896;45.990;18.688;2023-06-14T10:05:31;100488.13;;;30.43;23.91
75298;BME280;63896;45.990;18.688;2023-06-14T10:09:07;100481.69;;;32.21;23.32
75298;BME280;63896;45.990;18.688;2023-06-14T10:13:31;100486.63;;;35.23;19.18
75298;BME280;63896;45.990;18.688;2023-06-14T10:24:33;100469.50;;;33.11;21.70
75298;BME280;63896;45.990;18.688;2023-06-14T10:33:10;100463.78;;;33.62;21.10
75298;BME280;63896;45.990;18.688;2023-06-14T10:36:32;100471.44;;;30.36;22.88
75298;BME280;63896;45.990;18.688;2023-06-14T10:39:41;100456.66;;;32.77;21.40
75298;BME280;63896;45.990;18.688;2023-06-14T10:42:51;100454.22;;;34.83;19.63
75298;BME280;63896;45.990;18.688;2023-06-14T10:46:17;100459.09;;;34.94;18.74
75298;BME280;63896;45.990;18.688;2023-06-14T10:49:58;100453.34;;;35.46;17.79
75298;BME280;63896;45.990;18.688;2023-06-14T10:53:27;100452.19;;;35.10;17.75
75298;BME280;63896;45.990;18.688;2023-06-14T10:56:53;100452.41;;;34.65;18.15
75298;BME280;63896;45.990;18.688;2023-06-14T11:00:09;100447.78;;;35.83;17.31
75298;BME280;63896;45.990;18.688;2023-06-14T11:03:53;100451.91;;;34.85;18.99
75298;BME280;63896;45.990;18.688;2023-06-14T11:10:37;100463.16;;;37.25;16.02
75298;BME280;63896;45.990;18.688;2023-06-14T11:13:44;100454.41;;;37.09;16.59
75298;BME280;63896;45.990;18.688;2023-06-14T11:16:49;100451.69;;;36.33;17.74
75298;BME280;63896;45.990;18.688;2023-06-14T11:20:10;100451.00;;;35.96;18.67
75298;BME280;63896;45.990;18.688;2023-06-14T11:23:49;100442.25;;;36.38;18.80
75298;BME280;63896;45.990;18.688;2023-06-14T11:26:53;100438.63;;;37.31;17.10
75298;BME280;63896;45.990;18.688;2023-06-14T11:30:01;100441.06;;;37.78;16.93
75298;BME280;63896;45.990;18.688;2023-06-14T11:33:09;100434.66;;;38.24;16.19
75298;BME280;63896;45.990;18.688;2023-06-14T11:36:14;100433.88;;;35.72;18.63
75298;BME280;63896;45.990;18.688;2023-06-14T11:39:24;100434.56;;;36.89;17.61
75298;BME280;63896;45.990;18.688;2023-06-14T11:42:30;100427.97;;;37.47;17.16
75298;BME280;63896;45.990;18.688;2023-06-14T11:45:33;100414.13;;;37.89;16.66
75298;BME280;63896;45.990;18.688;2023-06-14T11:48:41;100425.38;;;35.95;18.13
75298;BME280;63896;45.990;18.688;2023-06-14T11:51:44;100421.25;;;37.48;17.31
75298;BME280;63896;45.990;18.688;2023-06-14T11:54:47;100430.19;;;35.58;18.64
75298;BME280;63896;45.990;18.688;2023-06-14T11:57:53;100419.41;;;34.42;20.39
75298;BME280;63896;45.990;18.688;2023-06-14T12:01:05;100430.00;;;34.36;20.88
75298;BME280;63896;45.990;18.688;2023-06-14T12:04:09;100423.28;;;36.40;18.52
75298;BME280;63896;45.990;18.688;2023-06-14T12:07:13;100418.47;;;34.61;19.85
75298;BME280;63896;45.990;18.688;2023-06-14T12:10:19;100425.06;;;31.66;22.83
75298;BME280;63896;45.990;18.688;2023-06-14T12:13:22;100417.56;;;31.82;21.96
75298;BME280;63896;45.990;18.688;2023-06-14T12:17:03;100427.50;;;32.37;21.60
75298;BME280;63896;45.990;18.688;2023-06-14T12:20:22;100418.38;;;33.97;19.77
75298;BME280;63896;45.990;18.688;2023-06-14T12:23:26;100415.34;;;36.35;17.58
75298;BME280;63896;45.990;18.688;2023-06-14T12:26:29;100411.78;;;37.59;16.65
75298;BME280;63896;45.990;18.688;2023-06-14T12:29:32;100405.78;;;37.11;17.74
75298;BME280;63896;45.990;18.688;2023-06-14T12:32:35;100408.75;;;33.39;20.30
75298;BME280;63896;45.990;18.688;2023-06-14T12:35:37;100409.41;;;33.55;19.32
75298;BME280;63896;45.990;18.688;2023-06-14T12:38:40;100413.63;;;34.21;18.02
75298;BME280;63896;45.990;18.688;2023-06-14T12:41:44;100410.44;;;31.62;20.89
75298;BME280;63896;45.990;18.688;2023-06-14T12:44:46;100411.13;;;29.84;23.89
75298;BME280;63896;45.990;18.688;2023-06-14T12:47:49;100408.00;;;33.19;20.09
75298;BME280;63896;45.990;18.688;2023-06-14T12:50:53;100400.91;;;35.06;18.67
75298;BME280;63896;45.990;18.688;2023-06-14T12:53:55;100405.16;;;31.26;21.89
75298;BME280;63896;45.990;18.688;2023-06-14T12:56:58;100400.06;;;32.56;21.05
75298;BME280;63896;45.990;18.688;2023-06-14T13:00:01;100396.97;;;34.40;19.49
75298;BME280;63896;45.990;18.688;2023-06-14T13:03:05;100394.38;;;35.21;19.22
75298;BME280;63896;45.990;18.688;2023-06-14T13:06:08;100387.03;;;36.55;18.65
75298;BME280;63896;45.990;18.688;2023-06-14T13:09:11;100393.06;;;36.82;17.36
75298;BME280;63896;45.990;18.688;2023-06-14T13:12:15;100394.84;;;30.51;23.99
75298;BME280;63896;45.990;18.688;2023-06-14T13:15:18;100392.78;;;30.60;23.85
75298;BME280;63896;45.990;18.688;2023-06-14T13:18:21;100390.97;;;30.00;25.20
75298;BME280;63896;45.990;18.688;2023-06-14T13:21:24;100392.63;;;28.99;25.22
75298;BME280;63896;45.990;18.688;2023-06-14T13:24:27;100387.19;;;29.68;25.29
75298;BME280;63896;45.990;18.688;2023-06-14T13:27:32;100381.13;;;30.23;25.68
75298;BME280;63896;45.990;18.688;2023-06-14T13:30:35;100381.59;;;29.65;25.34
75298;BME280;63896;45.990;18.688;2023-06-14T13:33:38;100376.09;;;28.42;27.21
75298;BME280;63896;45.990;18.688;2023-06-14T13:36:40;100366.47;;;28.15;27.81
75298;BME280;63896;45.990;18.688;2023-06-14T13:39:44;100374.84;;;28.93;26.35
75298;BME280;63896;45.990;18.688;2023-06-14T13:42:46;100373.09;;;29.21;28.13
75298;BME280;63896;45.990;18.688;2023-06-14T13:45:49;100359.31;;;28.73;27.74
75298;BME280;63896;45.990;18.688;2023-06-14T13:48:52;100365.13;;;28.63;27.46
75298;BME280;63896;45.990;18.688;2023-06-14T13:51:55;100363.63;;;28.53;26.63
75298;BME280;63896;45.990;18.688;2023-06-14T13:54:59;100364.47;;;28.86;27.37
75298;BME280;63896;45.990;18.688;2023-06-14T13:58:03;100369.59;;;28.67;27.63
75298;BME280;63896;45.990;18.688;2023-06-14T14:01:08;100366.69;;;27.34;29.61
75298;BME280;63896;45.990;18.688;2023-06-14T14:04:11;100366.97;;;28.17;30.15
75298;BME280;63896;45.990;18.688;2023-06-14T14:07:14;100371.38;;;28.01;28.47
75298;BME280;63896;45.990;18.688;2023-06-14T14:10:17;100372.22;;;28.22;27.82
75298;BME280;63896;45.990;18.688;2023-06-14T14:13:22;100376.94;;;27.46;28.31
75298;BME280;63896;45.990;18.688;2023-06-14T14:16:25;100369.41;;;28.10;29.17
75298;BME280;63896;45.990;18.688;2023-06-14T14:19:28;100364.66;;;27.99;27.74
75298;BME280;63896;45.990;18.688;2023-06-14T14:22:31;100363.13;;;26.79;29.37
75298;BME280;63896;45.990;18.688;2023-06-14T14:25:34;100365.44;;;27.23;29.22
75298;BME280;63896;45.990;18.688;2023-06-14T14:28:37;100367.94;;;26.90;30.06
75298;BME280;63896;45.990;18.688;2023-06-14T14:31:39;100365.56;;;27.35;29.52
75298;BME280;63896;45.990;18.688;2023-06-14T14:34:43;100364.38;;;27.62;29.03
75298;BME280;63896;45.990;18.688;2023-06-14T14:37:46;100364.63;;;27.69;28.92
75298;BME280;63896;45.990;18.688;2023-06-14T14:40:50;100361.81;;;27.11;29.81
75298;BME280;63896;45.990;18.688;2023-06-14T14:43:53;100371.59;;;27.58;32.44
75298;BME280;63896;45.990;18.688;2023-06-14T14:46:56;100373.75;;;27.73;29.65
75298;BME280;63896;45.990;18.688;2023-06-14T14:49:59;100375.16;;;26.95;29.75
75298;BME280;63896;45.990;18.688;2023-06-14T14:53:05;100372.13;;;26.45;30.20
75298;BME280;63896;45.990;18.688;2023-06-14T14:56:07;100370.38;;;26.83;29.64
75298;BME280;63896;45.990;18.688;2023-06-14T14:59:10;100369.06;;;26.38;30.48
75298;BME280;63896;45.990;18.688;2023-06-14T15:02:13;100374.19;;;26.39;31.08
75298;BME280;63896;45.990;18.688;2023-06-14T15:05:16;100367.25;;;26.07;31.64
75298;BME280;63896;45.990;18.688;2023-06-14T15:08:19;100370.66;;;26.22;32.20
75298;BME280;63896;45.990;18.688;2023-06-14T15:11:22;100367.78;;;26.27;33.24
75298;BME280;63896;45.990;18.688;2023-06-14T15:14:25;100361.06;;;26.33;31.03
75298;BME280;63896;45.990;18.688;2023-06-14T15:17:28;100361.72;;;26.47;31.90
75298;BME280;63896;45.990;18.688;2023-06-14T15:20:32;100367.63;;;26.32;31.98
75298;BME280;63896;45.990;18.688;2023-06-14T15:23:35;100354.97;;;26.70;32.86
75298;BME280;63896;45.990;18.688;2023-06-14T15:26:37;100358.34;;;26.76;31.52
75298;BME280;63896;45.990;18.688;2023-06-14T15:29:44;100354.47;;;27.03;31.40
75298;BME280;63896;45.990;18.688;2023-06-14T15:32:50;100355.31;;;26.51;31.95
75298;BME280;63896;45.990;18.688;2023-06-14T15:35:53;100355.81;;;26.45;32.99
75298;BME280;63896;45.990;18.688;2023-06-14T15:38:56;100361.38;;;25.66;34.61
75298;BME280;63896;45.990;18.688;2023-06-14T15:41:59;100367.13;;;25.03;35.14
75298;BME280;63896;45.990;18.688;2023-06-14T15:45:02;100368.38;;;24.75;36.50
75298;BME280;63896;45.990;18.688;2023-06-14T15:48:06;100365.22;;;24.59;35.66
75298;BME280;63896;45.990;18.688;2023-06-14T15:51:09;100366.75;;;24.51;36.04
75298;BME280;63896;45.990;18.688;2023-06-14T15:54:12;100367.47;;;24.43;36.17
75298;BME280;63896;45.990;18.688;2023-06-14T15:57:15;100360.69;;;24.32;36.04
75298;BME280;63896;45.990;18.688;2023-06-14T16:00:18;100365.94;;;24.51;36.28
75298;BME280;63896;45.990;18.688;2023-06-14T16:03:22;100373.34;;;24.59;35.18
75298;BME280;63896;45.990;18.688;2023-06-14T16:06:25;100371.56;;;24.77;34.89
75298;BME280;63896;45.990;18.688;2023-06-14T16:09:28;100370.03;;;25.37;34.80
75298;BME280;63896;45.990;18.688;2023-06-14T16:12:31;100367.31;;;25.77;32.72
75298;BME280;63896;45.990;18.688;2023-06-14T16:15:34;100365.28;;;25.82;33.53
75298;BME280;63896;45.990;18.688;2023-06-14T16:18:37;100367.84;;;25.96;33.91
75298;BME280;63896;45.990;18.688;2023-06-14T16:21:40;100378.38;;;25.49;33.56
75298;BME280;63896;45.990;18.688;2023-06-14T16:24:43;100377.28;;;25.50;34.18